Waterville, Minnesota
Current Conditions -  °F | °C
As of 4:15 AM on Sunday 25 Jan 2015 (Local Time) from KACQ Reporting Station
Light Snow Light Snow  
Wind Chill: 20°   Ceiling: 600
Heat Index: 32°   Visibility: 7mi
Dew Point: 30°   Wind: 18mph
Humidity: 93%   Direction: 30°NNE
Pressure: 29.74"   Gusts: 26mph
Location:  44.22°N, 93.57°W
Report Text: KACQ 251015Z AUTO 03016G23KT 7SM -SN OVC006 00/M01 A2974 RMK AO2
Loading
Personal Weather Stations






























Interactive Weather Map New forecast layout! Learn more

10-Day Weather Forecast

Advertisements
Track Severe Weather on mobile